Time;durP1;ratioP1;P1;durP2;ratioP2;P2;SDS_P1;SDS_P2;PMS_P1;PMS_P2;Temp;Humidity;BMP_temperature;BMP_pressure;BME280_temperature;BME280_humidity;BME280_pressure;Samples;Min_cycle;Max_cycle;Signal;HPM_P1;HPM_P2
2023/07/27 00:00:15;;;;;;;1.00;1.00;;;20.30;99.90;;;;;;4969086;28;20034;-75
2023/07/27 00:02:41;;;;;;;2.83;1.35;;;20.20;99.90;;;;;;4952562;28;20109;-75
2023/07/27 00:05:07;;;;;;;3.03;1.70;;;20.10;99.90;;;;;;4965419;28;20481;-76
2023/07/27 00:07:32;;;;;;;2.05;1.48;;;20.00;99.90;;;;;;4963631;28;20078;-76
2023/07/27 00:09:58;;;;;;;2.63;1.20;;;20.00;99.90;;;;;;4967903;28;20026;-76
2023/07/27 00:12:27;;;;;;;1.42;1.10;;;20.10;99.90;;;;;;4955188;28;20024;-76
2023/07/27 00:14:53;;;;;;;2.45;1.90;;;20.00;99.90;;;;;;4966008;28;20062;-76
2023/07/27 00:17:18;;;;;;;3.25;1.00;;;20.00;99.90;;;;;;4970503;28;20409;-75
2023/07/27 00:19:44;;;;;;;3.38;1.33;;;19.90;99.90;;;;;;4967082;28;20033;-76
2023/07/27 00:22:10;;;;;;;1.45;1.20;;;19.80;99.90;;;;;;4972467;28;20015;-75
2023/07/27 00:24:35;;;;;;;1.35;1.25;;;19.80;99.90;;;;;;4965536;28;20062;-76
2023/07/27 00:27:01;;;;;;;2.35;1.40;;;19.90;99.90;;;;;;4964591;28;20041;-76
2023/07/27 00:29:27;;;;;;;2.95;1.30;;;19.90;99.90;;;;;;4965183;28;20043;-75
2023/07/27 00:31:52;;;;;;;1.60;1.48;;;19.70;99.90;;;;;;4963755;28;20031;-75
2023/07/27 00:34:18;;;;;;;2.05;1.52;;;19.70;99.90;;;;;;4963864;28;20059;-76
2023/07/27 00:36:44;;;;;;;1.30;1.20;;;19.70;99.90;;;;;;4956099;28;20034;-75
2023/07/27 00:39:11;;;;;;;2.78;1.35;;;19.70;99.90;;;;;;4966535;28;20568;-75
2023/07/27 00:41:40;;;;;;;1.20;1.17;;;19.60;99.90;;;;;;4972204;28;20031;-76
2023/07/27 00:44:06;;;;;;;1.50;1.40;;;19.50;99.90;;;;;;4966393;28;20027;-76
2023/07/27 00:46:32;;;;;;;1.80;1.25;;;19.60;99.90;;;;;;4963276;28;20055;-76
2023/07/27 00:48:58;;;;;;;1.40;1.30;;;19.50;99.90;;;;;;4966471;28;20118;-76
2023/07/27 00:51:24;;;;;;;2.53;1.10;;;19.50;99.90;;;;;;4967800;28;20567;-75
2023/07/27 00:53:49;;;;;;;1.95;1.25;;;19.50;99.90;;;;;;4966566;28;20055;-76
2023/07/27 00:56:15;;;;;;;3.15;1.08;;;19.50;99.90;;;;;;4942568;29;20036;-75
2023/07/27 00:58:43;;;;;;;3.72;1.17;;;19.50;99.90;;;;;;4966030;28;20042;-75
2023/07/27 01:01:14;;;;;;;1.25;1.05;;;19.40;99.90;;;;;;4964735;28;20106;-75
2023/07/27 01:03:39;;;;;;;1.38;1.27;;;19.30;99.90;;;;;;4965723;28;20179;-76
2023/07/27 01:06:06;;;;;;;1.42;1.15;;;19.30;99.90;;;;;;4964615;28;20023;-75
2023/07/27 01:08:35;;;;;;;1.73;1.38;;;19.40;99.90;;;;;;4964658;28;20031;-76
2023/07/27 01:11:14;;;;;;;1.30;1.20;;;19.40;99.90;;;;;;4963723;28;20027;-76
2023/07/27 01:13:54;;;;;;;0.95;0.90;;;19.40;99.90;;;;;;4965501;28;20092;-76
2023/07/27 01:16:33;;;;;;;1.17;1.10;;;19.30;99.90;;;;;;4959689;28;20032;-76
2023/07/27 01:19:17;;;;;;;1.35;1.20;;;19.40;99.90;;;;;;4966377;28;20062;-76
2023/07/27 01:21:48;;;;;;;3.20;1.10;;;19.60;99.90;;;;;;4951682;28;20035;-76
2023/07/27 01:24:44;;;;;;;2.90;1.23;;;19.50;99.90;;;;;;4964656;28;20440;-76
2023/07/27 01:27:48;;;;;;;1.25;1.17;;;19.40;99.90;;;;;;4952821;28;20484;-76
2023/07/27 01:30:35;;;;;;;1.33;0.93;;;19.40;99.90;;;;;;4909982;29;20505;-76
2023/07/27 01:33:06;;;;;;;2.08;1.10;;;19.40;99.90;;;;;;4962261;28;20043;-75
2023/07/27 01:35:45;;;;;;;2.30;1.15;;;19.30;99.90;;;;;;4962542;28;20028;-76
2023/07/27 01:38:12;;;;;;;1.08;1.02;;;19.20;99.90;;;;;;4948279;28;20487;-76
2023/07/27 01:40:40;;;;;;;1.05;0.95;;;19.20;99.90;;;;;;4968194;28;20053;-76
2023/07/27 01:43:07;;;;;;;1.10;1.00;;;19.30;99.90;;;;;;4965737;28;20034;-76
2023/07/27 01:45:32;;;;;;;1.00;0.90;;;19.30;99.90;;;;;;4965326;28;20038;-76
2023/07/27 01:47:59;;;;;;;1.17;0.98;;;19.20;99.90;;;;;;4962765;28;20031;-73
2023/07/27 01:50:29;;;;;;;1.23;1.10;;;19.20;99.90;;;;;;4960304;28;20044;-76
2023/07/27 01:52:56;;;;;;;1.45;1.20;;;19.20;99.90;;;;;;4946118;28;20027;-76
2023/07/27 01:55:23;;;;;;;1.00;1.00;;;19.20;99.90;;;;;;4943266;29;20063;-76
2023/07/27 01:57:50;;;;;;;1.55;1.10;;;19.20;99.90;;;;;;4938474;29;20055;-76
2023/07/27 02:00:17;;;;;;;4.28;1.00;;;19.20;99.90;;;;;;4951256;29;20090;-75
2023/07/27 02:02:44;;;;;;;1.95;1.02;;;19.20;99.90;;;;;;4944721;28;20426;-75
2023/07/27 02:05:10;;;;;;;3.53;1.00;;;19.20;99.90;;;;;;4946610;28;20019;-76
2023/07/27 02:07:36;;;;;;;1.95;0.70;;;19.20;99.90;;;;;;4941553;29;20027;-75
2023/07/27 02:10:01;;;;;;;1.00;1.00;;;19.20;99.90;;;;;;4947003;28;20441;-76
2023/07/27 02:12:35;;;;;;;1.25;1.02;;;19.20;99.90;;;;;;4943401;29;20110;-76
2023/07/27 02:15:32;;;;;;;1.10;1.00;;;19.20;99.90;;;;;;4946656;28;20023;-76
2023/07/27 02:18:04;;;;;;;0.90;0.90;;;19.20;99.90;;;;;;4946180;28;20094;-76
2023/07/27 02:20:34;;;;;;;0.98;0.98;;;19.30;99.90;;;;;;4949197;28;20062;-76
2023/07/27 02:23:05;;;;;;;0.90;0.90;;;19.20;99.90;;;;;;4948358;29;20134;-76
2023/07/27 02:25:31;;;;;;;3.92;1.17;;;19.20;99.90;;;;;;4946628;28;20389;-76
2023/07/27 02:27:57;;;;;;;1.75;0.93;;;19.20;99.90;;;;;;4948364;29;20102;-76
2023/07/27 02:30:23;;;;;;;1.83;0.95;;;19.20;99.90;;;;;;4946890;28;20217;-76
2023/07/27 02:32:48;;;;;;;0.90;0.90;;;19.20;99.90;;;;;;4942444;28;20038;-76
2023/07/27 02:35:14;;;;;;;1.08;1.00;;;19.20;99.90;;;;;;4941806;29;20028;-75
2023/07/27 02:37:40;;;;;;;1.00;1.00;;;19.20;99.90;;;;;;4945728;29;20586;-76
2023/07/27 02:40:06;;;;;;;2.58;0.95;;;19.20;99.90;;;;;;4945551;28;20069;-76
2023/07/27 02:42:32;;;;;;;2.20;1.02;;;19.10;99.90;;;;;;4948886;28;20490;-76
2023/07/27 02:44:57;;;;;;;1.95;1.10;;;19.20;99.90;;;;;;4947199;29;20031;-76
2023/07/27 02:47:23;;;;;;;2.08;0.73;;;19.10;99.90;;;;;;4949290;29;20030;-76
2023/07/27 02:49:49;;;;;;;1.67;0.90;;;19.10;99.90;;;;;;4950347;28;20103;-76
2023/07/27 02:52:14;;;;;;;1.23;0.90;;;19.00;99.90;;;;;;4966697;28;20026;-76
2023/07/27 02:54:40;;;;;;;1.05;1.05;;;19.00;99.90;;;;;;4964427;28;20526;-76
2023/07/27 02:57:05;;;;;;;1.58;1.08;;;19.00;99.90;;;;;;4961160;28;20612;-74
2023/07/27 02:59:31;;;;;;;1.55;1.45;;;19.00;99.90;;;;;;4964585;28;20551;-74
2023/07/27 03:01:57;;;;;;;1.40;1.30;;;19.00;99.90;;;;;;4953943;28;20031;-73
2023/07/27 03:04:22;;;;;;;1.83;1.40;;;19.00;99.90;;;;;;4967532;28;20564;-73
2023/07/27 03:06:48;;;;;;;2.70;1.40;;;19.00;99.90;;;;;;4965682;28;20389;-73
2023/07/27 03:09:14;;;;;;;2.42;1.77;;;19.00;99.90;;;;;;4965021;28;20019;-73
2023/07/27 03:11:40;;;;;;;1.50;1.30;;;19.00;99.90;;;;;;4964780;28;20034;-73
2023/07/27 03:14:05;;;;;;;1.30;1.20;;;18.90;99.90;;;;;;4968692;28;20023;-73
2023/07/27 03:16:31;;;;;;;4.25;1.45;;;18.90;99.90;;;;;;4965004;28;20038;-73
2023/07/27 03:18:57;;;;;;;2.05;1.55;;;19.00;99.90;;;;;;4954203;28;20400;-73
2023/07/27 03:21:23;;;;;;;1.70;1.60;;;19.00;99.90;;;;;;4972577;28;20073;-74
2023/07/27 03:23:49;;;;;;;1.73;1.40;;;19.00;99.90;;;;;;4957468;28;20062;-73
2023/07/27 03:26:15;;;;;;;1.30;1.20;;;19.00;99.90;;;;;;4965688;28;20033;-75
2023/07/27 03:28:41;;;;;;;1.92;1.35;;;19.00;99.90;;;;;;4942704;28;20055;-76
2023/07/27 03:31:24;;;;;;;1.40;1.30;;;19.10;99.90;;;;;;4946952;29;20457;-75
2023/07/27 03:33:50;;;;;;;1.08;1.00;;;19.10;99.90;;;;;;4968145;28;20030;-76
2023/07/27 03:36:17;;;;;;;1.27;1.17;;;19.10;99.90;;;;;;4962058;28;20105;-76
2023/07/27 03:38:43;;;;;;;1.17;1.10;;;19.10;99.90;;;;;;4968197;28;20027;-75
2023/07/27 03:41:13;;;;;;;1.38;1.27;;;19.10;99.90;;;;;;4953808;28;20515;-75
2023/07/27 03:43:38;;;;;;;1.20;1.13;;;19.00;99.90;;;;;;4946639;29;20037;-76
2023/07/27 03:46:07;;;;;;;1.13;1.02;;;19.00;99.90;;;;;;4965280;28;20035;-76
2023/07/27 03:48:33;;;;;;;3.88;1.05;;;19.00;99.90;;;;;;4966382;28;20035;-76
2023/07/27 03:51:00;;;;;;;1.48;1.33;;;19.00;99.90;;;;;;4973040;28;20485;-76
2023/07/27 03:53:27;;;;;;;2.15;1.25;;;19.00;99.90;;;;;;4965434;28;20038;-76
2023/07/27 03:55:53;;;;;;;1.77;1.25;;;18.90;99.90;;;;;;4949933;29;20288;-76
2023/07/27 03:58:19;;;;;;;1.13;1.13;;;19.00;99.90;;;;;;4968402;28;20039;-76
2023/07/27 04:00:45;;;;;;;1.00;1.00;;;18.80;99.90;;;;;;4967195;28;20035;-76
2023/07/27 04:03:10;;;;;;;1.27;1.10;;;18.80;99.90;;;;;;4970434;28;20397;-75
2023/07/27 04:05:39;;;;;;;3.05;1.23;;;18.70;99.90;;;;;;4968516;28;20058;-75
2023/07/27 04:08:05;;;;;;;2.13;1.15;;;18.80;99.90;;;;;;4965939;28;20029;-75
2023/07/27 04:10:30;;;;;;;1.17;1.17;;;18.80;99.90;;;;;;4948191;28;20023;-76
2023/07/27 04:12:58;;;;;;;1.80;1.00;;;18.80;99.90;;;;;;4970216;28;20030;-75
2023/07/27 04:15:24;;;;;;;1.40;1.30;;;18.70;99.90;;;;;;4968320;28;20396;-76
2023/07/27 04:17:50;;;;;;;1.42;1.30;;;18.80;99.90;;;;;;4949714;28;20026;-76
2023/07/27 04:20:16;;;;;;;1.30;1.20;;;18.70;99.90;;;;;;4970858;28;20027;-76
2023/07/27 04:22:41;;;;;;;1.60;1.10;;;18.80;99.90;;;;;;4949001;28;20031;-75
2023/07/27 04:25:08;;;;;;;0.90;0.90;;;18.80;99.90;;;;;;4969586;28;20065;-76
2023/07/27 04:27:33;;;;;;;0.80;0.80;;;18.80;99.90;;;;;;4968277;28;20027;-75
2023/07/27 04:29:59;;;;;;;2.75;1.25;;;18.80;99.90;;;;;;4964781;28;20078;-75
2023/07/27 04:32:24;;;;;;;1.40;1.30;;;18.90;99.90;;;;;;4948351;29;20034;-76
2023/07/27 04:34:51;;;;;;;1.65;0.80;;;18.90;99.90;;;;;;4965861;28;20037;-76
2023/07/27 04:37:17;;;;;;;2.10;1.10;;;18.90;99.90;;;;;;4954228;29;20062;-75
2023/07/27 04:39:42;;;;;;;3.60;0.90;;;19.00;99.90;;;;;;4966397;28;20061;-76
2023/07/27 04:42:08;;;;;;;3.17;0.82;;;19.10;99.90;;;;;;4969819;28;20110;-75
2023/07/27 04:44:34;;;;;;;0.80;0.80;;;19.10;99.90;;;;;;4965843;28;20484;-75
2023/07/27 04:46:59;;;;;;;1.75;0.95;;;19.10;99.90;;;;;;4966400;28;20031;-75
2023/07/27 04:49:25;;;;;;;1.23;1.05;;;19.10;99.90;;;;;;4967229;28;20027;-76
2023/07/27 04:51:51;;;;;;;4.55;1.05;;;19.10;99.90;;;;;;4971347;28;20034;-76
2023/07/27 04:54:16;;;;;;;0.98;0.82;;;19.20;99.90;;;;;;4964110;28;20039;-76
2023/07/27 04:56:42;;;;;;;12.48;1.40;;;19.30;99.90;;;;;;4963654;28;20023;-76
2023/07/27 04:59:08;;;;;;;3.65;0.95;;;19.40;99.90;;;;;;4963983;28;20045;-76
2023/07/27 05:01:33;;;;;;;1.15;1.02;;;19.40;99.90;;;;;;4951158;28;20029;-76
2023/07/27 05:03:59;;;;;;;1.33;1.23;;;19.50;99.90;;;;;;4966392;28;20118;-75
2023/07/27 05:06:25;;;;;;;1.00;1.00;;;19.50;99.90;;;;;;4966066;28;20035;-76
2023/07/27 05:08:50;;;;;;;0.90;0.90;;;19.50;99.90;;;;;;4966564;28;20019;-76
2023/07/27 05:11:16;;;;;;;1.30;0.90;;;19.50;99.90;;;;;;4965484;28;20030;-76
2023/07/27 05:13:41;;;;;;;0.70;0.70;;;19.60;99.90;;;;;;4965989;28;20030;-75
2023/07/27 05:16:07;;;;;;;1.10;1.00;;;19.60;99.90;;;;;;4962737;28;20032;-75
2023/07/27 05:18:33;;;;;;;0.90;0.90;;;19.70;99.90;;;;;;4966601;28;20034;-75
2023/07/27 05:20:58;;;;;;;1.13;1.13;;;19.70;99.90;;;;;;4969697;28;20499;-76
2023/07/27 05:23:24;;;;;;;1.08;0.90;;;19.70;99.90;;;;;;4965222;28;20477;-76
2023/07/27 05:25:50;;;;;;;3.38;0.90;;;19.80;99.90;;;;;;4971171;28;20512;-75
2023/07/27 05:28:20;;;;;;;1.17;1.10;;;19.80;99.90;;;;;;4949412;28;20027;-76
2023/07/27 05:30:45;;;;;;;1.40;1.30;;;19.80;99.90;;;;;;4965059;28;20023;-75
2023/07/27 05:33:11;;;;;;;2.00;1.10;;;19.80;99.90;;;;;;4958361;28;20038;-76
2023/07/27 05:35:37;;;;;;;1.10;1.00;;;19.80;99.90;;;;;;4951009;28;20392;-76
2023/07/27 05:38:02;;;;;;;1.00;1.00;;;19.80;99.90;;;;;;4963915;28;20031;-76
2023/07/27 05:40:28;;;;;;;1.45;1.10;;;19.70;99.90;;;;;;4963752;28;20065;-75
2023/07/27 05:42:54;;;;;;;1.00;1.00;;;19.80;99.90;;;;;;4963442;28;20119;-75
2023/07/27 05:45:20;;;;;;;1.45;1.00;;;19.80;99.90;;;;;;4967593;28;20027;-76
2023/07/27 05:47:48;;;;;;;1.25;1.13;;;19.80;99.90;;;;;;4968938;28;20374;-76
2023/07/27 05:50:16;;;;;;;1.38;0.70;;;19.80;99.90;;;;;;4973380;28;20043;-76
2023/07/27 05:52:41;;;;;;;2.10;0.93;;;19.80;99.90;;;;;;4940371;29;20023;-76
2023/07/27 05:55:07;;;;;;;0.95;0.95;;;19.80;99.90;;;;;;4964798;28;20057;-75
2023/07/27 05:57:33;;;;;;;1.15;0.90;;;19.80;99.90;;;;;;4962527;28;20031;-76
2023/07/27 05:59:58;;;;;;;3.75;1.00;;;19.80;99.90;;;;;;4968745;28;20074;-75
2023/07/27 06:02:24;;;;;;;0.90;0.90;;;19.70;99.90;;;;;;4967740;28;20023;-75
2023/07/27 06:04:50;;;;;;;1.15;1.05;;;19.70;99.90;;;;;;4962533;28;20034;-76
2023/07/27 06:07:15;;;;;;;0.90;0.90;;;19.80;99.90;;;;;;4955832;28;20027;-76
2023/07/27 06:09:41;;;;;;;1.08;0.98;;;19.80;99.90;;;;;;4944513;28;20034;-76
2023/07/27 06:12:11;;;;;;;3.35;0.90;;;19.90;99.90;;;;;;4969929;28;20110;-76
2023/07/27 06:14:39;;;;;;;2.03;1.00;;;19.90;99.90;;;;;;4965916;28;20096;-76
2023/07/27 06:17:05;;;;;;;1.23;1.13;;;20.00;99.90;;;;;;4953440;28;20110;-76
2023/07/27 06:19:31;;;;;;;0.90;0.90;;;20.10;99.90;;;;;;4952635;28;20042;-76
2023/07/27 06:21:56;;;;;;;1.35;1.25;;;20.20;99.90;;;;;;4946246;29;20039;-76
2023/07/27 06:24:22;;;;;;;2.42;1.85;;;20.20;99.90;;;;;;4957134;28;20170;-76
2023/07/27 06:26:48;;;;;;;1.00;1.00;;;20.30;99.90;;;;;;4971079;28;20465;-76
2023/07/27 06:29:13;;;;;;;0.95;0.95;;;20.30;99.90;;;;;;4958509;28;20015;-76
2023/07/27 06:31:39;;;;;;;3.22;1.30;;;20.40;99.90;;;;;;4969182;28;20420;-76
2023/07/27 06:34:05;;;;;;;1.65;1.33;;;20.40;99.90;;;;;;4944464;28;20086;-76
2023/07/27 06:36:30;;;;;;;1.33;1.23;;;20.40;99.90;;;;;;4970128;28;20034;-76
2023/07/27 06:38:56;;;;;;;1.42;1.20;;;20.50;99.90;;;;;;4970050;28;20023;-77
2023/07/27 06:41:25;;;;;;;1.52;1.23;;;20.60;99.90;;;;;;4967270;28;20457;-76
2023/07/27 06:43:52;;;;;;;0.68;0.65;;;20.60;99.90;;;;;;4970265;28;20030;-76
2023/07/27 06:46:18;;;;;;;1.08;0.80;;;20.60;99.90;;;;;;4941488;29;20134;-76
2023/07/27 06:48:46;;;;;;;3.05;0.90;;;20.70;99.90;;;;;;4948472;29;20023;-76
2023/07/27 06:51:14;;;;;;;1.25;1.15;;;20.70;99.90;;;;;;4966979;28;20050;-77
2023/07/27 06:53:40;;;;;;;0.95;0.90;;;20.80;99.90;;;;;;4966607;28;20030;-76
2023/07/27 06:56:06;;;;;;;1.58;1.48;;;20.90;99.90;;;;;;4951189;28;20030;-77
2023/07/27 06:58:32;;;;;;;2.22;0.90;;;20.90;99.90;;;;;;4971038;28;20034;-76
2023/07/27 07:00:58;;;;;;;4.20;0.95;;;21.10;99.90;;;;;;4941212;29;20090;-74
2023/07/27 07:03:24;;;;;;;1.70;0.85;;;21.10;99.90;;;;;;4968506;28;20559;-76
2023/07/27 07:05:50;;;;;;;0.98;0.98;;;21.20;99.90;;;;;;4958004;28;20035;-76
2023/07/27 07:08:15;;;;;;;0.85;0.75;;;21.30;99.90;;;;;;4963377;28;20069;-76
2023/07/27 07:10:41;;;;;;;0.73;0.70;;;21.40;99.90;;;;;;4943813;28;20023;-76
2023/07/27 07:13:07;;;;;;;0.80;0.80;;;21.50;99.90;;;;;;4967625;28;20436;-76
2023/07/27 07:15:32;;;;;;;1.17;1.10;;;21.60;99.90;;;;;;4962318;28;20417;-77
2023/07/27 07:17:58;;;;;;;1.73;1.23;;;21.60;99.90;;;;;;4951362;29;20027;-77
2023/07/27 07:20:24;;;;;;;1.08;0.98;;;21.60;99.90;;;;;;4956242;28;20035;-77
2023/07/27 07:22:49;;;;;;;1.40;1.00;;;21.70;99.90;;;;;;4963031;28;20701;-77
2023/07/27 07:25:16;;;;;;;3.92;1.23;;;21.80;99.90;;;;;;4962923;28;20033;-77
2023/07/27 07:27:42;;;;;;;1.70;0.90;;;21.80;99.90;;;;;;4945988;28;20401;-77
2023/07/27 07:30:08;;;;;;;1.48;1.00;;;22.00;99.90;;;;;;4952747;28;20027;-77
2023/07/27 07:32:34;;;;;;;1.85;1.00;;;22.10;99.90;;;;;;4952958;28;20548;-77
2023/07/27 07:35:01;;;;;;;2.05;0.73;;;22.10;99.90;;;;;;4958690;28;20122;-76
2023/07/27 07:37:27;;;;;;;0.98;0.90;;;22.20;99.90;;;;;;4954788;28;20034;-77
2023/07/27 07:39:53;;;;;;;0.80;0.80;;;22.30;99.90;;;;;;4958885;28;20027;-77
